createdAt,value
2023-05-03T00:02:24.845Z,4.82
2023-05-03T00:04:55.185Z,6.88
2023-05-03T00:07:22.984Z,5.00
2023-05-03T00:09:50.300Z,7.85
2023-05-03T00:12:17.582Z,7.50
2023-05-03T00:14:46.239Z,4.88
2023-05-03T00:17:13.592Z,5.82
2023-05-03T00:19:40.663Z,5.50
2023-05-03T00:22:07.801Z,5.43
2023-05-03T00:24:35.591Z,3.78
2023-05-03T00:27:05.215Z,5.60
2023-05-03T00:29:32.446Z,6.22
2023-05-03T00:32:00.475Z,4.88
2023-05-03T00:34:27.684Z,5.85
2023-05-03T00:36:54.732Z,6.00
2023-05-03T00:39:21.774Z,11.82
2023-05-03T00:41:48.777Z,7.47
2023-05-03T00:44:16.271Z,5.32
2023-05-03T00:46:43.364Z,10.15
2023-05-03T00:49:10.508Z,2.95
2023-05-03T00:51:37.695Z,5.05
2023-05-03T00:54:04.944Z,4.82
2023-05-03T00:56:44.406Z,6.18
2023-05-03T00:59:19.158Z,6.32
2023-05-03T01:01:51.669Z,6.63
2023-05-03T01:04:20.176Z,6.97
2023-05-03T01:07:10.828Z,7.78
2023-05-03T01:10:06.214Z,6.80
2023-05-03T01:12:57.853Z,7.13
2023-05-03T01:16:01.022Z,6.20
2023-05-03T01:18:34.593Z,8.13
2023-05-03T01:21:05.352Z,7.15
2023-05-03T01:24:08.069Z,15.25
2023-05-03T01:26:35.166Z,10.63
2023-05-03T01:29:02.554Z,11.80
2023-05-03T01:31:39.277Z,7.90
2023-05-03T01:34:51.023Z,7.40
2023-05-03T01:37:18.877Z,7.00
2023-05-03T01:40:02.311Z,8.23
2023-05-03T01:42:31.093Z,7.38
2023-05-03T01:45:00.416Z,6.47
2023-05-03T01:47:27.982Z,8.47
2023-05-03T01:49:55.225Z,7.60
2023-05-03T01:52:24.237Z,12.40
2023-05-03T01:54:51.298Z,9.65
2023-05-03T01:57:18.334Z,7.85
2023-05-03T01:59:45.427Z,10.95
2023-05-03T02:02:12.538Z,18.95
2023-05-03T02:04:39.633Z,18.85
2023-05-03T02:07:06.739Z,15.27
2023-05-03T02:09:34.305Z,9.93
2023-05-03T02:12:01.336Z,9.00
2023-05-03T02:14:28.515Z,10.80
2023-05-03T02:16:56.051Z,10.47
2023-05-03T02:19:23.183Z,11.40
2023-05-03T02:21:50.473Z,9.35
2023-05-03T02:24:17.754Z,10.07
2023-05-03T02:26:44.875Z,10.20
2023-05-03T02:29:11.954Z,11.07
2023-05-03T02:31:39.069Z,8.57
2023-05-03T02:34:06.178Z,6.75
2023-05-03T02:36:33.248Z,8.70
2023-05-03T02:39:00.378Z,4.82
2023-05-03T02:41:27.591Z,9.33
2023-05-03T02:43:54.634Z,5.40
2023-05-03T02:46:21.767Z,9.00
2023-05-03T02:48:48.880Z,6.83
2023-05-03T02:51:16.151Z,11.00
2023-05-03T02:53:43.170Z,9.65
2023-05-03T02:56:10.162Z,9.98
2023-05-03T02:58:37.425Z,12.97
2023-05-03T03:01:04.725Z,9.33
2023-05-03T03:03:32.037Z,11.50
2023-05-03T03:05:59.314Z,10.93
2023-05-03T03:08:26.410Z,5.20
2023-05-03T03:10:53.445Z,8.87
2023-05-03T03:13:20.641Z,6.47
2023-05-03T03:15:47.741Z,7.72
2023-05-03T03:18:14.896Z,4.00
2023-05-03T03:20:43.512Z,5.43
2023-05-03T03:23:11.431Z,6.83
2023-05-03T03:25:38.499Z,6.60
2023-05-03T03:28:05.731Z,9.75
2023-05-03T03:30:32.769Z,6.07
2023-05-03T03:32:59.969Z,7.17
2023-05-03T03:35:27.684Z,5.97
2023-05-03T03:37:54.679Z,9.60
2023-05-03T03:40:21.767Z,12.10
2023-05-03T03:42:48.783Z,10.60
2023-05-03T03:45:15.785Z,14.15
2023-05-03T03:47:42.932Z,9.30
2023-05-03T03:50:10.668Z,7.90
2023-05-03T03:52:37.865Z,8.70
2023-05-03T03:55:05.513Z,8.15
2023-05-03T03:57:32.571Z,9.10
2023-05-03T03:59:59.827Z,9.83
2023-05-03T04:02:27.820Z,8.87
2023-05-03T04:04:55.043Z,7.50
2023-05-03T04:07:22.154Z,9.97
2023-05-03T04:09:49.295Z,6.37
2023-05-03T04:12:16.364Z,8.10
2023-05-03T04:14:43.499Z,10.90
2023-05-03T04:17:10.787Z,12.90
2023-05-03T04:19:38.720Z,9.98
2023-05-03T04:22:06.031Z,5.90
2023-05-03T04:24:33.143Z,7.97
2023-05-03T04:27:04.341Z,5.70
2023-05-03T04:29:31.659Z,7.00
2023-05-03T04:31:58.795Z,7.43
2023-05-03T04:34:26.010Z,8.07
2023-05-03T04:36:53.580Z,4.65
2023-05-03T04:39:22.162Z,6.03
2023-05-03T04:41:49.217Z,6.50
2023-05-03T04:44:16.473Z,4.43
2023-05-03T04:46:43.639Z,5.18
2023-05-03T04:49:10.927Z,5.65
2023-05-03T04:51:37.961Z,5.20
2023-05-03T04:54:05.163Z,6.28
2023-05-03T04:56:35.693Z,6.30
2023-05-03T04:59:02.838Z,9.02
2023-05-03T05:01:29.954Z,5.50
2023-05-03T05:03:57.171Z,10.02
2023-05-03T05:06:24.493Z,7.93
2023-05-03T05:08:51.482Z,6.43
2023-05-03T05:11:19.000Z,7.55
2023-05-03T05:13:46.124Z,5.53
2023-05-03T05:16:13.255Z,5.18
2023-05-03T05:18:40.398Z,6.57
2023-05-03T05:21:07.490Z,4.05
2023-05-03T05:23:34.551Z,6.60
2023-05-03T05:26:01.741Z,10.38
2023-05-03T05:28:29.242Z,3.78
2023-05-03T05:30:56.411Z,4.45
2023-05-03T05:33:24.518Z,5.28
2023-05-03T05:35:51.624Z,8.15
2023-05-03T05:38:18.793Z,4.03
2023-05-03T05:40:45.835Z,4.40
2023-05-03T05:43:12.952Z,4.53
2023-05-03T05:45:40.273Z,8.18
2023-05-03T05:48:08.331Z,5.93
2023-05-03T05:50:36.646Z,5.85
2023-05-03T05:53:03.702Z,4.38
2023-05-03T05:55:30.977Z,3.08
2023-05-03T05:57:58.069Z,4.53
2023-05-03T06:00:25.333Z,8.10
2023-05-03T06:02:52.689Z,1.95
2023-05-03T06:05:21.367Z,5.53
2023-05-03T06:07:49.619Z,5.78
2023-05-03T06:10:16.818Z,9.25
2023-05-03T06:12:44.031Z,5.20
2023-05-03T06:15:11.337Z,4.40
2023-05-03T06:17:38.440Z,5.30
2023-05-03T06:20:06.905Z,5.75
2023-05-03T06:22:34.185Z,3.97
2023-05-03T06:25:01.313Z,5.20
2023-05-03T06:27:28.357Z,3.97
2023-05-03T06:29:55.480Z,4.30
2023-05-03T06:32:23.498Z,5.25
2023-05-03T06:34:50.975Z,3.13
2023-05-03T06:37:17.980Z,3.40
2023-05-03T06:39:45.042Z,4.50
2023-05-03T06:42:12.197Z,2.30
2023-05-03T06:44:39.229Z,5.93
2023-05-03T06:47:06.452Z,2.90
2023-05-03T06:49:33.848Z,2.90
2023-05-03T06:52:00.927Z,3.35
2023-05-03T06:54:28.013Z,3.45
2023-05-03T06:56:55.073Z,6.32
2023-05-03T06:59:22.114Z,4.88
2023-05-03T07:01:50.848Z,6.25
2023-05-03T07:04:18.005Z,2.50
2023-05-03T07:06:55.841Z,1.63
2023-05-03T07:09:35.482Z,3.13
2023-05-03T07:12:09.524Z,4.97
2023-05-03T07:14:36.593Z,3.97
2023-05-03T07:17:03.738Z,4.75
2023-05-03T07:19:31.077Z,4.68
2023-05-03T07:21:58.218Z,4.55
2023-05-03T07:24:26.200Z,2.92
2023-05-03T07:26:54.079Z,2.92
2023-05-03T07:29:21.543Z,5.68
2023-05-03T07:31:49.937Z,1.88
2023-05-03T07:34:18.574Z,2.38
2023-05-03T07:36:45.666Z,2.72
2023-05-03T07:39:12.687Z,2.13
2023-05-03T07:41:39.853Z,3.92
2023-05-03T07:44:07.852Z,9.35
2023-05-03T07:46:35.524Z,8.10
2023-05-03T07:49:05.050Z,10.48
2023-05-03T07:51:39.396Z,5.00
2023-05-03T07:54:06.888Z,2.83
2023-05-03T07:56:34.128Z,5.35
2023-05-03T07:59:09.156Z,1.92
2023-05-03T08:01:38.270Z,5.45
2023-05-03T08:04:06.056Z,6.00
2023-05-03T08:06:35.722Z,4.80
2023-05-03T08:09:04.689Z,5.50
2023-05-03T08:11:32.250Z,4.93
2023-05-03T08:13:59.337Z,5.85
2023-05-03T08:16:26.537Z,2.45
2023-05-03T08:18:53.652Z,5.45
2023-05-03T08:21:22.154Z,4.35
2023-05-03T08:23:49.177Z,9.73
2023-05-03T08:26:16.303Z,5.38
2023-05-03T08:28:43.345Z,8.30
2023-05-03T08:31:10.504Z,4.50
2023-05-03T08:33:37.899Z,4.07
2023-05-03T08:36:05.736Z,3.50
2023-05-03T08:38:34.440Z,3.40
2023-05-03T08:41:14.122Z,3.50
2023-05-03T08:43:46.288Z,5.07
2023-05-03T08:46:14.073Z,4.15
2023-05-03T08:48:41.566Z,5.35
2023-05-03T08:51:10.094Z,5.18
2023-05-03T08:53:37.641Z,5.88
2023-05-03T08:56:12.633Z,6.15
2023-05-03T08:58:39.901Z,4.35
2023-05-03T09:01:09.858Z,4.65
2023-05-03T09:03:37.997Z,6.55
2023-05-03T09:06:26.393Z,4.22
2023-05-03T09:08:54.783Z,7.35
2023-05-03T09:11:27.808Z,5.55
2023-05-03T09:14:08.503Z,3.40
2023-05-03T09:16:36.093Z,6.47
2023-05-03T09:19:09.412Z,5.28
2023-05-03T09:21:38.078Z,4.45
2023-05-03T09:24:22.313Z,4.05
2023-05-03T09:26:52.023Z,4.57
2023-05-03T09:29:35.980Z,6.97
2023-05-03T09:32:06.541Z,3.65
2023-05-03T09:34:35.623Z,3.25
2023-05-03T09:37:02.769Z,4.68
2023-05-03T09:39:30.091Z,5.63
2023-05-03T09:41:57.240Z,5.30
2023-05-03T09:44:44.695Z,4.65
2023-05-03T09:47:12.533Z,3.78
2023-05-03T09:49:39.972Z,4.55
2023-05-03T09:52:08.346Z,4.65
2023-05-03T09:54:36.226Z,1.80
2023-05-03T09:57:08.549Z,4.07
2023-05-03T09:59:37.757Z,4.07
2023-05-03T10:02:07.757Z,3.13
2023-05-03T10:04:51.470Z,3.75
2023-05-03T10:07:22.074Z,6.88
2023-05-03T10:09:49.384Z,4.13
2023-05-03T10:12:18.034Z,4.57
2023-05-03T10:14:49.986Z,3.45
2023-05-03T10:17:46.983Z,2.67
2023-05-03T10:20:24.362Z,2.83
2023-05-03T10:23:07.626Z,3.05
2023-05-03T10:25:37.668Z,1.40
2023-05-03T10:28:09.831Z,9.73
2023-05-03T10:30:39.965Z,4.35
2023-05-03T10:33:12.979Z,6.55
2023-05-03T10:35:55.058Z,5.75
2023-05-03T10:38:28.141Z,5.80
2023-05-03T10:40:56.831Z,2.80
2023-05-03T10:43:32.260Z,3.72
2023-05-03T10:46:01.715Z,4.40
2023-05-03T10:48:30.312Z,6.78
2023-05-03T10:50:59.310Z,3.28
2023-05-03T10:53:35.453Z,3.88
2023-05-03T10:56:06.669Z,3.17
2023-05-03T10:58:43.968Z,5.38
2023-05-03T11:01:17.715Z,6.22
2023-05-03T11:04:01.091Z,8.38
2023-05-03T11:06:35.711Z,5.72
2023-05-03T11:09:06.802Z,3.28
2023-05-03T11:11:36.590Z,7.63
2023-05-03T11:14:04.361Z,5.00
2023-05-03T11:16:32.021Z,3.28
2023-05-03T11:19:00.556Z,6.28
2023-05-03T11:21:27.911Z,4.15
2023-05-03T11:23:55.168Z,3.67
2023-05-03T11:26:26.276Z,3.13
2023-05-03T11:28:54.574Z,9.32
2023-05-03T11:31:22.815Z,6.45
2023-05-03T11:33:51.208Z,5.28
2023-05-03T11:36:18.382Z,6.88
2023-05-03T11:38:46.076Z,4.32
2023-05-03T11:41:19.593Z,2.47
2023-05-03T11:43:57.507Z,6.05
2023-05-03T11:46:33.060Z,4.22
2023-05-03T11:49:02.204Z,5.40
2023-05-03T11:51:29.552Z,5.45
2023-05-03T11:53:57.190Z,3.35
2023-05-03T11:56:24.660Z,5.13
2023-05-03T11:58:59.765Z,2.28
2023-05-03T12:01:29.140Z,3.47
2023-05-03T12:04:02.559Z,2.75
2023-05-03T12:06:35.358Z,2.55
2023-05-03T12:09:05.437Z,4.70
2023-05-03T12:11:44.206Z,7.05
2023-05-03T12:14:12.286Z,3.10
2023-05-03T12:16:52.770Z,2.08
2023-05-03T12:19:39.266Z,5.80
2023-05-03T12:22:26.092Z,2.33
2023-05-03T12:24:54.126Z,3.78
2023-05-03T12:27:23.560Z,3.08
2023-05-03T12:29:51.904Z,3.03
2023-05-03T12:32:21.377Z,2.85
2023-05-03T12:34:51.901Z,3.72
2023-05-03T12:37:22.056Z,3.83
2023-05-03T12:40:01.497Z,2.85
2023-05-03T12:42:37.058Z,13.60
2023-05-03T12:45:05.312Z,3.83
2023-05-03T12:47:36.172Z,4.03
2023-05-03T12:50:06.216Z,5.68
2023-05-03T12:52:38.171Z,8.57
2023-05-03T12:55:11.341Z,5.13
2023-05-03T12:57:39.255Z,2.40
2023-05-03T13:00:21.157Z,5.95
2023-05-03T13:05:33.813Z,3.55
2023-05-03T13:08:09.196Z,4.82
2023-05-03T13:10:39.152Z,3.42
2023-05-03T13:13:07.156Z,3.38
2023-05-03T13:15:38.010Z,3.95
2023-05-03T13:18:07.413Z,2.42
2023-05-03T13:20:37.093Z,6.90
2023-05-03T13:23:04.817Z,3.92
2023-05-03T13:25:32.162Z,5.15
2023-05-03T13:28:01.937Z,7.30
2023-05-03T13:30:29.295Z,3.13
2023-05-03T13:32:56.477Z,2.75
2023-05-03T13:35:23.545Z,3.38
2023-05-03T13:37:51.101Z,3.90
2023-05-03T13:40:18.905Z,3.95
2023-05-03T13:42:46.048Z,4.35
2023-05-03T13:45:15.141Z,4.15
2023-05-03T13:48:04.965Z,3.30
2023-05-03T13:50:32.059Z,6.05
2023-05-03T13:52:59.218Z,8.73
2023-05-03T13:55:26.902Z,7.57
2023-05-03T13:57:54.142Z,7.20
2023-05-03T14:00:21.419Z,6.68
2023-05-03T14:02:48.808Z,7.07
2023-05-03T14:05:16.627Z,4.70
2023-05-03T14:07:43.796Z,5.10
2023-05-03T14:10:11.891Z,7.20
2023-05-03T14:12:39.111Z,8.55
2023-05-03T14:15:07.738Z,6.68
2023-05-03T14:17:34.957Z,4.75
2023-05-03T14:20:02.697Z,6.60
2023-05-03T14:22:30.055Z,5.68
2023-05-03T14:24:57.292Z,3.28
2023-05-03T14:27:24.461Z,3.20
2023-05-03T14:29:52.038Z,3.47
2023-05-03T14:32:24.497Z,4.72
2023-05-03T14:34:51.733Z,4.88
2023-05-03T14:37:18.840Z,6.47
2023-05-03T14:39:46.082Z,5.03
2023-05-03T14:42:13.228Z,7.55
2023-05-03T14:44:40.347Z,3.38
2023-05-03T14:47:08.397Z,8.93
2023-05-03T14:49:41.143Z,2.95
2023-05-03T14:52:09.007Z,4.43
2023-05-03T14:54:37.517Z,6.30
2023-05-03T14:57:05.125Z,2.22
2023-05-03T14:59:33.396Z,5.25
2023-05-03T15:02:01.699Z,4.45
2023-05-03T15:04:29.391Z,4.82
2023-05-03T15:07:04.260Z,6.75
2023-05-03T15:09:31.913Z,2.65
2023-05-03T15:11:59.741Z,3.22
2023-05-03T15:14:26.779Z,4.88
2023-05-03T15:16:53.894Z,3.08
2023-05-03T15:19:21.673Z,4.82
2023-05-03T15:21:50.947Z,3.88
2023-05-03T15:24:18.867Z,4.93
2023-05-03T15:26:47.082Z,6.72
2023-05-03T15:29:15.362Z,5.07
2023-05-03T15:31:42.973Z,3.47
2023-05-03T15:34:12.291Z,2.60
2023-05-03T15:36:40.661Z,3.65
2023-05-03T15:39:09.489Z,4.55
2023-05-03T15:41:36.522Z,2.47
2023-05-03T15:44:05.501Z,4.32
2023-05-03T15:46:34.578Z,2.55
2023-05-03T15:49:01.873Z,2.95
2023-05-03T15:51:29.430Z,6.18
2023-05-03T15:53:56.571Z,7.40
2023-05-03T15:56:23.787Z,2.72
2023-05-03T15:58:51.023Z,2.38
2023-05-03T16:01:18.811Z,3.55
2023-05-03T16:03:46.325Z,3.33
2023-05-03T16:06:16.823Z,4.85
2023-05-03T16:08:44.320Z,2.80
2023-05-03T16:11:12.968Z,2.35
2023-05-03T16:13:40.051Z,5.97
2023-05-03T16:16:07.295Z,3.15
2023-05-03T16:18:34.409Z,4.65
2023-05-03T16:21:02.636Z,3.80
2023-05-03T16:23:29.955Z,3.33
2023-05-03T16:25:57.190Z,2.22
2023-05-03T16:28:24.423Z,1.65
2023-05-03T16:30:51.807Z,2.70
2023-05-03T16:33:19.577Z,8.13
2023-05-03T16:35:46.637Z,2.58
2023-05-03T16:38:13.699Z,5.18
2023-05-03T16:40:42.517Z,7.22
2023-05-03T16:43:10.258Z,3.20
2023-05-03T16:45:37.622Z,7.40
2023-05-03T16:48:06.806Z,2.72
2023-05-03T16:50:37.095Z,3.72
2023-05-03T16:53:04.247Z,6.07
2023-05-03T16:55:31.426Z,5.63
2023-05-03T16:57:58.453Z,5.20
2023-05-03T17:00:25.901Z,3.08
2023-05-03T17:02:53.049Z,4.63
2023-05-03T17:05:20.426Z,4.90
2023-05-03T17:07:47.500Z,3.22
2023-05-03T17:10:14.768Z,3.33
2023-05-03T17:12:41.931Z,4.28
2023-05-03T17:15:10.249Z,3.70
2023-05-03T17:17:37.328Z,5.32
2023-05-03T17:20:05.320Z,3.72
2023-05-03T17:22:32.876Z,3.72
2023-05-03T17:24:59.996Z,2.38
2023-05-03T17:27:27.145Z,2.70
2023-05-03T17:29:57.522Z,5.45
2023-05-03T17:32:24.796Z,2.05
2023-05-03T17:34:51.986Z,1.92
2023-05-03T17:37:19.018Z,6.53
2023-05-03T17:39:46.368Z,3.33
2023-05-03T17:42:13.410Z,3.58
2023-05-03T17:44:40.960Z,3.28
2023-05-03T17:47:09.503Z,4.43
2023-05-03T17:49:36.626Z,2.63
2023-05-03T17:52:05.002Z,5.18
2023-05-03T17:54:32.311Z,5.95
2023-05-03T17:56:59.511Z,6.25
2023-05-03T17:59:26.540Z,4.05
2023-05-03T18:01:53.686Z,3.47
2023-05-03T18:04:20.900Z,5.15
2023-05-03T18:06:48.038Z,4.05
2023-05-03T18:09:16.497Z,4.82
2023-05-03T18:11:45.123Z,2.80
2023-05-03T18:14:12.485Z,6.05
2023-05-03T18:16:39.974Z,2.75
2023-05-03T18:19:07.344Z,4.28
2023-05-03T18:21:35.642Z,3.67
2023-05-03T18:24:03.845Z,7.90
2023-05-03T18:26:30.957Z,3.33
2023-05-03T18:28:59.378Z,4.35
2023-05-03T18:31:27.341Z,4.10
2023-05-03T18:33:54.522Z,5.75
2023-05-03T18:36:23.565Z,3.38
2023-05-03T18:38:53.274Z,4.20
2023-05-03T18:41:20.953Z,5.75
2023-05-03T18:43:47.987Z,4.60
2023-05-03T18:46:19.708Z,7.95
2023-05-03T18:48:47.895Z,6.53
2023-05-03T18:51:15.123Z,7.90
2023-05-03T18:53:43.524Z,7.63
2023-05-03T18:56:10.907Z,5.68
2023-05-03T18:58:38.257Z,5.07
2023-05-03T19:01:06.037Z,4.35
2023-05-03T19:03:33.595Z,6.43
2023-05-03T19:06:07.331Z,10.60
2023-05-03T19:08:35.767Z,3.92
2023-05-03T19:11:14.510Z,7.43
2023-05-03T19:13:44.826Z,8.07
2023-05-03T19:16:12.513Z,14.63
2023-05-03T19:18:44.326Z,8.60
2023-05-03T19:21:17.753Z,8.85
2023-05-03T19:23:45.353Z,11.50
2023-05-03T19:26:12.457Z,9.52
2023-05-03T19:28:40.436Z,9.75
2023-05-03T19:31:07.797Z,6.75
2023-05-03T19:33:34.907Z,6.00
2023-05-03T19:36:06.597Z,13.18
2023-05-03T19:38:36.469Z,8.82
2023-05-03T19:41:09.664Z,8.38
2023-05-03T19:43:36.791Z,16.02
2023-05-03T19:46:04.631Z,16.23
2023-05-03T19:48:32.399Z,10.57
2023-05-03T19:51:00.461Z,14.43
2023-05-03T19:53:28.513Z,11.85
2023-05-03T19:56:01.017Z,29.35
2023-05-03T19:58:29.001Z,20.50
2023-05-03T20:00:58.980Z,14.02
2023-05-03T20:03:26.974Z,16.73
2023-05-03T20:05:54.215Z,15.57
2023-05-03T20:08:21.345Z,13.38
2023-05-03T20:10:49.869Z,17.20
2023-05-03T20:13:17.272Z,18.08
2023-05-03T20:15:44.480Z,14.45
2023-05-03T20:18:11.539Z,10.97
2023-05-03T20:20:39.124Z,12.07
2023-05-03T20:23:06.286Z,14.87
2023-05-03T20:25:33.827Z,10.83
2023-05-03T20:28:01.013Z,14.45
2023-05-03T20:30:29.769Z,17.92
2023-05-03T20:32:56.883Z,8.80
2023-05-03T20:35:24.042Z,12.30
2023-05-03T20:37:51.212Z,10.93
2023-05-03T20:40:18.278Z,13.60
2023-05-03T20:42:45.354Z,20.03
2023-05-03T20:45:12.745Z,17.37
2023-05-03T20:47:39.830Z,14.87
2023-05-03T20:50:08.904Z,12.63
2023-05-03T20:52:36.386Z,18.80
2023-05-03T20:55:03.562Z,13.53
2023-05-03T20:57:31.587Z,16.73
2023-05-03T21:00:00.431Z,15.67
2023-05-03T21:02:27.568Z,13.90
2023-05-03T21:04:54.639Z,19.37
2023-05-03T21:07:21.737Z,14.47
2023-05-03T21:09:48.713Z,16.33
2023-05-03T21:12:15.807Z,14.73
2023-05-03T21:14:42.869Z,15.93
2023-05-03T21:17:12.229Z,15.27
2023-05-03T21:19:39.942Z,18.97
2023-05-03T21:22:11.603Z,17.20
2023-05-03T21:24:38.848Z,17.27
2023-05-03T21:27:05.869Z,16.43
2023-05-03T21:29:33.118Z,15.87
2023-05-03T21:32:00.380Z,15.00
2023-05-03T21:34:27.799Z,15.20
2023-05-03T21:36:54.854Z,15.47
2023-05-03T21:39:21.986Z,12.93
2023-05-03T21:41:49.024Z,14.27
2023-05-03T21:44:16.093Z,12.90
2023-05-03T21:46:43.267Z,15.93
2023-05-03T21:49:10.487Z,13.83
2023-05-03T21:51:37.678Z,12.87
2023-05-03T21:54:04.837Z,10.67
2023-05-03T21:56:31.958Z,11.00
2023-05-03T21:58:59.012Z,13.43
2023-05-03T22:01:26.147Z,13.23
2023-05-03T22:03:53.502Z,9.93
2023-05-03T22:06:21.790Z,11.27
2023-05-03T22:08:49.349Z,16.00
2023-05-03T22:11:16.442Z,12.70
2023-05-03T22:13:58.750Z,14.63
2023-05-03T22:16:26.551Z,12.87
2023-05-03T22:18:53.641Z,12.50
2023-05-03T22:21:20.893Z,14.20
2023-05-03T22:23:48.197Z,11.90
2023-05-03T22:26:15.253Z,19.53
2023-05-03T22:28:42.608Z,12.20
2023-05-03T22:31:09.692Z,17.47
2023-05-03T22:33:36.815Z,15.23
2023-05-03T22:36:04.502Z,18.67
2023-05-03T22:38:31.873Z,20.60
2023-05-03T22:40:58.941Z,14.97
2023-05-03T22:43:26.058Z,14.70
2023-05-03T22:45:53.107Z,17.83
2023-05-03T22:48:20.237Z,15.60
2023-05-03T22:50:47.267Z,17.90
2023-05-03T22:53:14.358Z,17.43
2023-05-03T22:55:41.542Z,15.00
2023-05-03T22:58:08.649Z,15.47
2023-05-03T23:00:35.677Z,11.30
2023-05-03T23:03:02.829Z,15.10
2023-05-03T23:05:30.467Z,13.40
2023-05-03T23:07:57.481Z,16.10
2023-05-03T23:10:24.865Z,12.30
2023-05-03T23:12:51.968Z,15.07
2023-05-03T23:15:19.195Z,11.50
2023-05-03T23:17:46.569Z,14.60
2023-05-03T23:20:13.953Z,12.10
2023-05-03T23:22:42.295Z,13.07
2023-05-03T23:25:09.889Z,15.60
2023-05-03T23:27:37.425Z,13.27
2023-05-03T23:30:05.887Z,13.90
2023-05-03T23:32:33.490Z,13.63
2023-05-03T23:35:01.241Z,13.73
2023-05-03T23:37:28.691Z,11.27
2023-05-03T23:39:55.865Z,11.33
2023-05-03T23:42:24.356Z,14.00
2023-05-03T23:44:55.264Z,14.30
2023-05-03T23:47:23.599Z,12.03
2023-05-03T23:49:51.111Z,12.93
2023-05-03T23:52:19.873Z,14.57
2023-05-03T23:54:47.035Z,17.23
2023-05-03T23:57:14.170Z,16.70
2023-05-03T23:59:41.194Z,14.47
